x

Port Wing, Wi (pngw3) Weather Station

11:20pm - Wed 25th May 2016 All times are CDT. -5 hours from GMT.

  • Wind
    3mph, 7mph gusts
  • Air Temp 43°f
  • Sea Pressure 1011.9mb
  • Port Wing, Wi
  • Port Wing, Wi

More Historic Weather Station data

Upgrade to MSW Pro to gain access to the past 30 days of data for over 8000 Wavebouys and Weather Stations around the globe.

Join Pro

Comparision Forecast

View Surf forecast
   
Wed 05/25 11:20pm 3 7 mph 1011.9mb 43f
9:40pm 5 18 mph 1011.9mb 43f
5:15pm 29 43 mph 1015.2mb 41f
12:40pm 21 23 mph 1016.6mb 43f
12:30pm 21 23 mph 1016.9mb 43f
12:20pm 20 22 mph 1016.9mb 43f
12:10pm 21 24 mph 1017.3mb 44f
12:00pm 20 23 mph 1017.3mb 43f
11:40am 23 25 mph 1016.9mb 43f
11:30am 22 25 mph 1016.9mb 44f
11:20am 22 24 mph 1017.3mb 44f
11:10am 21 22 mph 1017.3mb 44f
11:00am 18 21 mph 1017.3mb 44f
10:40am 18 21 mph 1016.9mb 44f
10:30am 20 22 mph 1016.9mb 44f
10:20am 20 21 mph 1016.9mb 44f
10:10am 17 18 mph 1016.9mb 44f
10:00am 16 17 mph 1017.3mb 44f
9:40am 17 20 mph 1017.6mb 44f
9:30am 16 18 mph 1017.9mb 44f
9:20am 15 17 mph 1017.9mb 44f
9:10am 15 17 mph 1017.6mb 44f
9:00am 15 18 mph 1017.3mb 43f
8:40am 16 20 mph 1017.3mb 43f
8:30am 18 20 mph 1017.3mb 43f
8:20am 16 18 mph 1017.3mb 43f
8:10am 16 18 mph 1017.3mb 44f
8:00am 16 17 mph 1017.3mb 44f
Tue 05/24 9:40pm 17 25 mph 1015.6mb 45f
12:30pm 8 10 mph 1012.2mb 52f
12:20pm 7 18 mph 1011.9mb 51f
10:20am 5 13 mph 1010.8mb -
9:20am 6 15 mph 1011.5mb -
3:40am 7 11 mph 1009.8mb -
3:30am 10 14 mph 1009.8mb -
3:20am 14 15 mph 1009.5mb -
3:10am 9 15 mph 1009.8mb -
3:00am 9 11 mph 1009.8mb -
2:50am  -  2 mph 1009.8mb -
2:40am  -  2 mph 1009.8mb -
2:30am 1 3 mph 1009.5mb -
2:20am 2 13 mph 1009.5mb -
2:10am 3 5 mph 1009.8mb -
2:00am 3 13 mph 1009.5mb -
1:50am 6 8 mph 1009.1mb -
12:20am 3 10 mph 1008.8mb -
Mon 05/23 10:20pm 5 14 mph 1009.5mb -
9:00pm 2 10 mph 1007.8mb -
7:51pm 2 6 mph 1006.8mb -
6:30am 8 11 mph 1009.1mb -
5:00am 3 8 mph 1009.5mb 44f
4:40am 2 3 mph 1009.8mb 44f
4:30am 3 5 mph 1010.2mb 44f
4:20am 2 3 mph 1010.5mb 44f
4:10am  -  5 mph 1010.5mb 45f
4:00am 3 6 mph 1010.8mb 46f
3:40am 2 7 mph 1010.5mb 46f
3:30am 3 6 mph 1010.2mb 46f
3:20am  -  2 mph 1010.2mb 45f
3:10am  -  3 mph 1010.2mb 44f
3:00am 3
mph
1010.2mb 44f
2:50am 2 3 mph 1010.2mb 44f
2:40am 2 3 mph 1010.2mb 44f
2:30am 2
mph
1010.5mb 44f
2:20am  -  2 mph 1010.5mb 44f
2:10am 1 2 mph 1010.5mb 44f
2:00am  -  2 mph 1010.5mb 44f
1:50am 2
mph
1010.5mb 44f
1:40am 2
mph
1010.5mb 44f
1:30am 2 3 mph 1010.5mb 44f
1:20am  -  2 mph 1010.5mb 44f
1:10am  -  1 mph 1010.8mb 43f
1:00am 1 3 mph 1010.8mb 43f
12:50am 2 3 mph 1010.8mb 43f
12:40am 2 5 mph 1011.2mb 43f
12:30am 3 5 mph 1011.2mb 43f
12:20am 3 5 mph 1011.2mb 43f
12:10am 5 6 mph 1011.2mb 43f
12:00am 6 7 mph 1011.2mb 44f
Sun 05/22 11:50pm 5 6 mph 1010.8mb 44f
11:40pm 3 5 mph 1010.8mb 44f
11:30pm 2 3 mph 1011.2mb 44f
11:20pm 2 5 mph 1011.2mb 45f
11:10pm 3 5 mph 1011.5mb 45f
11:00pm 3 5 mph 1011.2mb 45f
10:50pm 3 5 mph 1010.8mb 45f
10:40pm 2 5 mph 1011.2mb 45f
10:30pm 3 5 mph 1011.2mb 46f
10:20pm 5 6 mph 1011.2mb 46f
10:10pm 3 6 mph 1011.2mb 46f
10:00pm 2
mph
1011.2mb 47f
9:50pm 1 2 mph 1011.2mb 48f
9:40pm  -  2 mph 1011.2mb 48f
9:30pm  -  3 mph 1011.2mb 47f
9:20pm 1 3 mph 1011.2mb 46f
9:10pm 3 6 mph 1011.5mb 45f
9:00pm 5 6 mph 1011.5mb 44f
8:40pm 5 6 mph 1011.5mb 45f
8:30pm 5 6 mph 1011.5mb 45f
8:20pm 5 6 mph 1011.9mb 44f
8:10pm 3 6 mph 1011.9mb 45f
8:00pm 2 3 mph 1011.9mb 46f
7:50pm 2 3 mph 1011.9mb 46f
7:35pm 2 10 mph 1012.2mb 47f
5:56pm 7 11 mph 1011.9mb 51f